Accueil
METAR-TAF:

METAR-TAF

Aéroports :

Foz do Iguaçu, Paraná, Brésil

latitude: 25-31S, longitude: 054-35W, altitude: 180 m

Observation

Le bulletin a été fait il y a 33 minutes, à 06:00 UTC
Vent 4 kt de est/nord-est
Température 21°C
Humidité 78%
Pression 1015 hPa
Visibilité 10 km ou plus
pas de nuages en-dessous de 1500 mètres et pas de cumulonimbus.

METAR: SBFI 240600Z 07004KT CAVOK 21/17 Q1015

Heure: 03:33 (06:33 UTC)

Prévision

Le bulletin a été fait il y a 3 heures et 33 minutes, à 03:00 UTC
Prévision valable du 24 à 06 UTC au 25 à 06 UTC
Vent 4 kt de est
Visibilité 10 km ou plus
pas de nuages en-dessous de 1500 mètres et pas de cumulonimbus.
Probabilité 30% :
Temporairement
du 24 à 16 UTC au 24 à 20 UTC
Vent 10 kt de nord

TAF: SBFI 240300Z 2406/2506 08004KT CAVOK TN20/2410Z TX33/2418Z PROB30 TEMPO 2416/2420 01010KT RMK PDN

Observations et prévisions météorologiques de plus de 4000 aéroports (messages METAR et TAF).

Les stations disponibles sont représentées par des disques jaunes et rouges sur la carte.

Passer la souris dessus pour voir le nom de la station.

Cliquer dessus pour voir les observations et prévisions météorologiques.

Pour changer de carte: cliquez sur les boutons verts avec une croix noire pour zoomer, sur le bouton vert avec un tiret pour effectuer un zoom arrière, ou sur les flèches vertes pour les cartes adjacentes.


METAR-TAF: